createdAt,value
2023-03-31T00:00:25.625Z,95.15
2023-03-31T00:03:11.751Z,33.45
2023-03-31T00:05:39.844Z,37.92
2023-03-31T00:08:07.368Z,41.38
2023-03-31T00:10:35.069Z,36.47
2023-03-31T00:13:02.650Z,33.97
2023-03-31T00:15:29.953Z,34.55
2023-03-31T00:18:00.551Z,36.80
2023-03-31T00:20:28.527Z,58.50
2023-03-31T00:22:57.768Z,36.47
2023-03-31T00:25:25.540Z,34.88
2023-03-31T00:27:52.895Z,35.28
2023-03-31T00:30:20.635Z,37.78
2023-03-31T00:32:47.791Z,35.33
2023-03-31T00:35:15.189Z,29.15
2023-03-31T00:37:43.416Z,32.35
2023-03-31T00:40:12.134Z,56.28
2023-03-31T00:42:44.088Z,43.53
2023-03-31T00:45:14.910Z,34.15
2023-03-31T00:48:10.435Z,39.78
2023-03-31T00:50:47.523Z,32.63
2023-03-31T00:53:16.964Z,36.85
2023-03-31T00:55:47.783Z,35.53
2023-03-31T00:58:20.181Z,37.05
2023-03-31T01:00:49.209Z,40.25
2023-03-31T01:03:16.674Z,42.80
2023-03-31T01:05:50.307Z,32.38
2023-03-31T01:08:19.358Z,41.80
2023-03-31T01:10:54.356Z,34.90
2023-03-31T01:13:21.966Z,35.13
2023-03-31T01:15:49.623Z,34.17
2023-03-31T01:18:21.676Z,34.83
2023-03-31T01:21:30.606Z,62.13
2023-03-31T01:24:39.249Z,39.28
2023-03-31T01:27:26.307Z,39.15
2023-03-31T01:30:31.903Z,32.80
2023-03-31T01:33:34.534Z,33.90
2023-03-31T01:36:14.614Z,32.60
2023-03-31T01:38:53.802Z,32.20
2023-03-31T01:41:33.538Z,48.20
2023-03-31T01:44:41.200Z,43.15
2023-03-31T01:47:29.162Z,72.97
2023-03-31T01:50:05.931Z,43.20
2023-03-31T01:52:44.173Z,40.28
2023-03-31T01:55:20.884Z,42.45
2023-03-31T01:58:11.639Z,38.42
2023-03-31T02:00:42.813Z,38.92
2023-03-31T02:03:17.104Z,40.33
2023-03-31T02:05:49.380Z,39.40
2023-03-31T02:08:22.494Z,106.82
2023-03-31T02:10:50.619Z,38.55
2023-03-31T02:13:19.432Z,43.85
2023-03-31T02:15:51.387Z,45.65
2023-03-31T02:18:22.797Z,44.10
2023-03-31T02:20:50.841Z,45.40
2023-03-31T02:23:20.734Z,46.83
2023-03-31T02:25:53.924Z,48.95
2023-03-31T02:28:24.085Z,54.78
2023-03-31T02:31:13.686Z,51.65
2023-03-31T02:33:41.395Z,58.40
2023-03-31T02:36:09.328Z,56.60
2023-03-31T02:38:40.763Z,54.00
2023-03-31T02:41:08.452Z,52.85
2023-03-31T02:43:35.527Z,59.83
2023-03-31T02:46:02.809Z,59.45
2023-03-31T02:48:37.244Z,78.32
2023-03-31T02:51:08.767Z,63.63
2023-03-31T02:53:46.345Z,65.18
2023-03-31T02:56:44.328Z,59.72
2023-03-31T02:59:33.055Z,64.30
2023-03-31T03:02:00.838Z,54.92
2023-03-31T03:05:05.661Z,55.85
2023-03-31T03:07:39.732Z,61.70
2023-03-31T03:10:21.166Z,62.85
2023-03-31T03:12:58.881Z,62.42
2023-03-31T03:15:44.981Z,73.55
2023-03-31T03:18:12.821Z,61.83
2023-03-31T03:20:42.908Z,66.18
2023-03-31T03:23:10.365Z,69.68
2023-03-31T03:25:37.839Z,62.30
2023-03-31T03:28:05.116Z,149.50
2023-03-31T03:30:32.127Z,66.15
2023-03-31T03:32:59.488Z,66.10
2023-03-31T03:35:26.538Z,88.88
2023-03-31T03:37:53.791Z,74.07
2023-03-31T03:40:21.002Z,69.40
2023-03-31T03:42:48.347Z,71.07
2023-03-31T03:45:15.483Z,76.50
2023-03-31T03:47:42.930Z,121.93
2023-03-31T03:50:10.484Z,83.32
2023-03-31T03:52:37.847Z,72.18
2023-03-31T03:55:05.762Z,81.53
2023-03-31T03:57:33.057Z,77.93
2023-03-31T04:00:00.158Z,79.18
2023-03-31T04:02:28.915Z,75.55
2023-03-31T04:04:56.074Z,73.63
2023-03-31T04:07:23.385Z,115.72
2023-03-31T04:09:50.458Z,208.43
2023-03-31T04:12:17.728Z,110.05
2023-03-31T04:14:44.679Z,80.22
2023-03-31T04:17:16.048Z,72.82
2023-03-31T04:19:43.142Z,75.15
2023-03-31T04:22:11.838Z,70.07
2023-03-31T04:24:38.919Z,72.00
2023-03-31T04:27:07.541Z,78.60
2023-03-31T04:29:37.314Z,74.75
2023-03-31T04:32:04.880Z,123.63
2023-03-31T04:34:35.615Z,75.80
2023-03-31T04:37:03.965Z,69.25
2023-03-31T04:39:34.713Z,69.53
2023-03-31T04:42:02.144Z,76.30
2023-03-31T04:44:29.361Z,74.85
2023-03-31T04:46:56.691Z,73.15
2023-03-31T04:49:23.712Z,71.53
2023-03-31T04:51:51.161Z,91.18
2023-03-31T04:54:18.377Z,78.25
2023-03-31T04:56:46.623Z,71.07
2023-03-31T04:59:13.724Z,68.30
2023-03-31T05:01:45.067Z,64.25
2023-03-31T05:04:12.365Z,62.47
2023-03-31T05:06:39.780Z,64.80
2023-03-31T05:09:07.276Z,59.90
2023-03-31T05:11:34.637Z,65.60
2023-03-31T05:14:01.655Z,60.63
2023-03-31T05:16:29.087Z,48.45
2023-03-31T05:18:56.169Z,51.22
2023-03-31T05:21:23.959Z,49.03
2023-03-31T05:23:51.084Z,50.72
2023-03-31T05:26:18.537Z,91.57
2023-03-31T05:28:45.766Z,88.25
2023-03-31T05:31:14.636Z,48.65
2023-03-31T05:33:42.331Z,43.55
2023-03-31T05:36:14.216Z,46.72
2023-03-31T05:38:41.634Z,43.47
2023-03-31T05:41:09.843Z,48.42
2023-03-31T05:43:37.779Z,46.83
2023-03-31T05:46:06.688Z,42.70
2023-03-31T05:48:34.234Z,43.58
2023-03-31T05:51:02.183Z,42.25
2023-03-31T05:53:29.510Z,37.92
2023-03-31T05:55:58.730Z,40.92
2023-03-31T05:58:26.283Z,38.00
2023-03-31T06:01:08.910Z,41.47
2023-03-31T06:03:38.677Z,39.22
2023-03-31T06:06:07.895Z,37.97
2023-03-31T06:08:36.199Z,33.80
2023-03-31T06:11:11.747Z,41.00
2023-03-31T06:13:39.812Z,38.83
2023-03-31T06:16:07.765Z,38.03
2023-03-31T06:18:36.234Z,40.33
2023-03-31T06:21:04.415Z,35.50
2023-03-31T06:23:31.842Z,31.30
2023-03-31T06:26:04.430Z,36.35
2023-03-31T06:28:31.366Z,31.80
2023-03-31T06:31:03.305Z,31.65
2023-03-31T06:33:31.196Z,34.53
2023-03-31T06:35:59.653Z,32.65
2023-03-31T06:38:27.675Z,28.50
2023-03-31T06:40:54.950Z,37.15
2023-03-31T06:43:22.155Z,28.58
2023-03-31T06:45:51.725Z,29.02
2023-03-31T06:48:20.601Z,29.67
2023-03-31T06:50:47.926Z,40.05
2023-03-31T06:53:14.848Z,27.75
2023-03-31T06:55:42.255Z,25.42
2023-03-31T06:58:09.527Z,26.52
2023-03-31T07:00:36.791Z,28.33
2023-03-31T07:03:04.709Z,28.80
2023-03-31T07:05:32.178Z,23.55
2023-03-31T07:07:59.820Z,31.90
2023-03-31T07:10:29.969Z,49.75
2023-03-31T07:12:57.340Z,27.17
2023-03-31T07:15:25.725Z,25.58
2023-03-31T07:18:02.671Z,24.65
2023-03-31T07:20:31.094Z,26.85
2023-03-31T07:22:58.213Z,21.45
2023-03-31T07:25:25.943Z,23.40
2023-03-31T07:27:53.174Z,21.52
2023-03-31T07:30:21.055Z,26.58
2023-03-31T07:32:50.296Z,18.38
2023-03-31T07:35:18.624Z,16.27
2023-03-31T07:37:47.324Z,21.92
2023-03-31T07:40:21.222Z,15.05
2023-03-31T07:42:49.525Z,19.33
2023-03-31T07:45:17.220Z,21.90
2023-03-31T07:47:46.524Z,15.43
2023-03-31T07:50:15.664Z,22.98
2023-03-31T07:52:44.739Z,20.55
2023-03-31T07:55:14.139Z,46.88
2023-03-31T07:57:42.308Z,16.13
2023-03-31T08:00:12.611Z,16.35
2023-03-31T08:05:11.520Z,18.02
2023-03-31T08:07:40.249Z,18.00
2023-03-31T08:10:09.987Z,18.98
2023-03-31T08:12:37.074Z,16.65
2023-03-31T08:15:05.360Z,18.88
2023-03-31T08:17:32.558Z,15.32
2023-03-31T08:20:03.773Z,16.70
2023-03-31T08:22:33.413Z,25.52
2023-03-31T08:25:00.782Z,17.25
2023-03-31T08:27:27.907Z,13.88
2023-03-31T08:29:55.196Z,15.15
2023-03-31T08:32:24.240Z,15.98
2023-03-31T08:34:51.718Z,17.15
2023-03-31T08:37:18.904Z,17.35
2023-03-31T08:39:46.267Z,16.17
2023-03-31T08:42:16.217Z,14.43
2023-03-31T08:45:04.258Z,13.70
2023-03-31T08:47:32.792Z,13.02
2023-03-31T08:50:07.554Z,11.27
2023-03-31T08:53:01.912Z,15.57
2023-03-31T08:55:36.369Z,27.48
2023-03-31T08:58:05.844Z,12.07
2023-03-31T09:00:41.182Z,15.65
2023-03-31T09:03:29.366Z,14.25
2023-03-31T09:06:02.309Z,13.27
2023-03-31T09:08:37.739Z,10.00
2023-03-31T09:11:40.919Z,10.45
2023-03-31T09:14:32.605Z,16.15
2023-03-31T09:17:15.454Z,16.23
2023-03-31T09:19:49.020Z,12.20
2023-03-31T09:22:20.776Z,16.63
2023-03-31T09:24:56.384Z,17.42
2023-03-31T09:27:26.224Z,16.83
2023-03-31T09:29:53.936Z,17.85
2023-03-31T09:32:24.125Z,15.05
2023-03-31T09:34:57.550Z,36.45
2023-03-31T09:37:27.390Z,134.18
2023-03-31T09:39:54.392Z,61.60
2023-03-31T09:42:21.694Z,13.35
2023-03-31T09:44:52.308Z,13.68
2023-03-31T09:47:25.957Z,18.20
2023-03-31T09:49:53.616Z,19.63
2023-03-31T09:52:31.060Z,20.95
2023-03-31T09:55:36.092Z,14.25
2023-03-31T09:58:08.593Z,18.05
2023-03-31T10:00:36.294Z,17.70
2023-03-31T10:03:07.881Z,15.35
2023-03-31T10:05:38.013Z,20.23
2023-03-31T10:08:12.042Z,24.23
2023-03-31T10:10:39.075Z,23.00
2023-03-31T10:13:10.875Z,15.27
2023-03-31T10:15:40.986Z,16.27
2023-03-31T10:18:15.154Z,17.88
2023-03-31T10:20:50.787Z,16.77
2023-03-31T10:23:27.771Z,17.38
2023-03-31T10:25:54.859Z,17.35
2023-03-31T10:28:22.809Z,17.30
2023-03-31T10:30:56.003Z,15.43
2023-03-31T10:33:26.018Z,13.32
2023-03-31T10:35:58.208Z,18.35
2023-03-31T10:38:37.843Z,16.23
2023-03-31T10:41:05.336Z,18.58
2023-03-31T10:43:42.315Z,14.57
2023-03-31T10:46:09.983Z,19.50
2023-03-31T10:48:41.115Z,19.50
2023-03-31T10:51:19.656Z,15.57
2023-03-31T10:53:49.303Z,15.57
2023-03-31T10:56:22.986Z,12.07
2023-03-31T10:59:10.268Z,22.00
2023-03-31T11:02:34.696Z,14.02
2023-03-31T11:05:23.041Z,19.80
2023-03-31T11:08:05.852Z,17.85
2023-03-31T11:10:48.510Z,15.40
2023-03-31T11:13:40.452Z,12.45
2023-03-31T11:16:35.305Z,13.25
2023-03-31T11:19:05.891Z,46.95
2023-03-31T11:21:51.208Z,25.92
2023-03-31T11:24:23.615Z,10.48
2023-03-31T11:27:11.032Z,9.35
2023-03-31T11:29:41.017Z,11.85
2023-03-31T11:32:40.876Z,11.70
2023-03-31T11:35:38.792Z,10.32
2023-03-31T11:38:16.016Z,11.45
2023-03-31T11:40:58.300Z,19.35
2023-03-31T11:43:42.057Z,13.43
2023-03-31T11:46:09.499Z,12.43
2023-03-31T11:48:46.155Z,15.82
2023-03-31T11:51:31.897Z,14.07
2023-03-31T11:54:00.435Z,18.33
2023-03-31T11:56:34.012Z,12.77
2023-03-31T11:59:03.181Z,58.78
2023-03-31T12:01:40.705Z,31.17
2023-03-31T12:04:11.121Z,20.85
2023-03-31T12:06:42.661Z,11.00
2023-03-31T12:09:31.981Z,12.13
2023-03-31T12:12:21.036Z,14.95
2023-03-31T12:15:11.529Z,14.82
2023-03-31T12:17:41.744Z,15.00
2023-03-31T12:20:26.159Z,28.17
2023-03-31T12:22:54.769Z,16.27
2023-03-31T12:25:28.554Z,12.98
2023-03-31T12:27:56.604Z,13.25
2023-03-31T12:30:37.627Z,13.75
2023-03-31T12:33:10.932Z,14.27
2023-03-31T12:35:51.950Z,10.05
2023-03-31T12:38:54.988Z,17.45
2023-03-31T12:41:51.306Z,13.90
2023-03-31T12:44:38.676Z,13.25
2023-03-31T12:47:18.785Z,11.52
2023-03-31T12:50:13.794Z,15.10
2023-03-31T12:52:52.660Z,12.93
2023-03-31T12:55:22.822Z,20.02
2023-03-31T12:57:50.369Z,30.55
2023-03-31T13:00:24.492Z,29.67
2023-03-31T13:03:30.423Z,17.40
2023-03-31T13:05:57.511Z,12.43
2023-03-31T13:08:49.878Z,12.52
2023-03-31T13:11:18.614Z,12.88
2023-03-31T13:14:00.874Z,14.82
2023-03-31T13:16:29.869Z,12.38
2023-03-31T13:18:57.721Z,31.45
2023-03-31T13:21:25.211Z,13.27
2023-03-31T13:23:53.911Z,10.52
2023-03-31T13:26:33.027Z,9.35
2023-03-31T13:29:15.699Z,7.85
2023-03-31T13:32:26.257Z,11.05
2023-03-31T13:35:04.582Z,10.27
2023-03-31T13:37:45.219Z,13.77
2023-03-31T13:40:24.769Z,32.58
2023-03-31T13:43:00.887Z,11.93
2023-03-31T13:45:55.750Z,13.23
2023-03-31T13:48:39.770Z,14.63
2023-03-31T13:51:16.034Z,14.13
2023-03-31T13:54:19.798Z,11.18
2023-03-31T13:57:24.406Z,16.15
2023-03-31T14:00:19.250Z,44.63
2023-03-31T14:03:01.725Z,10.75
2023-03-31T14:05:43.475Z,16.40
2023-03-31T14:08:15.063Z,15.48
2023-03-31T14:10:43.210Z,14.25
2023-03-31T14:13:18.873Z,11.77
2023-03-31T14:15:55.082Z,15.15
2023-03-31T14:18:28.665Z,36.28
2023-03-31T14:21:11.446Z,37.40
2023-03-31T14:23:39.029Z,17.85
2023-03-31T14:26:18.028Z,25.27
2023-03-31T14:29:12.669Z,22.90
2023-03-31T14:32:16.769Z,20.85
2023-03-31T14:35:20.027Z,14.90
2023-03-31T14:37:49.034Z,13.73
2023-03-31T14:40:17.318Z,35.00
2023-03-31T14:42:49.750Z,28.80
2023-03-31T14:45:31.540Z,19.08
2023-03-31T14:48:04.762Z,15.57
2023-03-31T14:50:35.727Z,13.63
2023-03-31T14:53:04.951Z,15.20
2023-03-31T14:55:54.180Z,19.05
2023-03-31T14:58:30.943Z,9.32
2023-03-31T15:00:59.101Z,14.98
2023-03-31T15:03:26.578Z,16.88
2023-03-31T15:06:01.313Z,15.10
2023-03-31T15:08:30.584Z,6.72
2023-03-31T15:11:11.975Z,12.30
2023-03-31T15:16:33.179Z,19.50
2023-03-31T15:19:04.945Z,48.90
2023-03-31T15:21:37.637Z,12.52
2023-03-31T15:24:05.607Z,11.75
2023-03-31T15:26:41.527Z,13.73
2023-03-31T15:29:38.527Z,83.60
2023-03-31T15:32:13.101Z,23.60
2023-03-31T15:34:43.427Z,8.93
2023-03-31T15:37:11.261Z,6.00
2023-03-31T15:39:38.999Z,9.60
2023-03-31T15:42:07.723Z,6.90
2023-03-31T15:44:44.407Z,7.72
2023-03-31T15:47:18.609Z,5.85
2023-03-31T15:49:51.584Z,11.82
2023-03-31T15:52:41.244Z,8.48
2023-03-31T15:55:23.858Z,7.88
2023-03-31T15:57:51.891Z,6.68
2023-03-31T16:00:34.247Z,8.98
2023-03-31T16:03:02.900Z,9.00
2023-03-31T16:08:44.819Z,7.18
2023-03-31T16:11:15.962Z,14.68
2023-03-31T16:13:46.841Z,69.70
2023-03-31T16:16:15.976Z,31.83
2023-03-31T16:18:47.445Z,20.10
2023-03-31T16:21:16.442Z,15.18
2023-03-31T16:23:45.516Z,17.33
2023-03-31T16:26:13.268Z,11.90
2023-03-31T16:28:40.659Z,12.85
2023-03-31T16:31:34.352Z,12.25
2023-03-31T16:34:04.042Z,21.88
2023-03-31T16:36:31.469Z,478.98
2023-03-31T16:39:01.863Z,492.48
2023-03-31T16:41:29.828Z,66.45
2023-03-31T16:43:57.224Z,16.58
2023-03-31T16:46:25.124Z,10.68
2023-03-31T16:48:52.982Z,235.55
2023-03-31T16:51:20.462Z,391.63
2023-03-31T16:53:48.367Z,228.52
2023-03-31T16:56:15.774Z,159.07
2023-03-31T16:58:43.835Z,48.28
2023-03-31T17:01:11.681Z,70.03
2023-03-31T17:03:41.696Z,51.95
2023-03-31T17:06:12.058Z,92.55
2023-03-31T17:08:39.877Z,97.45
2023-03-31T17:11:11.062Z,30.55
2023-03-31T17:13:39.265Z,50.10
2023-03-31T17:16:18.479Z,107.00
2023-03-31T17:18:53.040Z,244.02
2023-03-31T17:21:20.623Z,119.68
2023-03-31T17:23:48.155Z,36.80
2023-03-31T17:26:16.493Z,46.10
2023-03-31T17:28:44.018Z,45.72
2023-03-31T17:31:18.468Z,26.77
2023-03-31T17:33:46.346Z,10.60
2023-03-31T17:36:13.403Z,97.88
2023-03-31T17:38:41.729Z,96.65
2023-03-31T17:41:13.507Z,27.15
2023-03-31T17:43:44.978Z,31.58
2023-03-31T17:46:12.997Z,33.22
2023-03-31T17:48:41.454Z,15.48
2023-03-31T17:51:10.890Z,14.43
2023-03-31T17:53:39.824Z,127.22
2023-03-31T17:56:06.876Z,45.15
2023-03-31T17:58:34.198Z,50.85
2023-03-31T18:01:05.037Z,43.58
2023-03-31T18:03:32.576Z,59.67
2023-03-31T18:06:07.679Z,409.30
2023-03-31T18:08:35.349Z,211.88
2023-03-31T18:11:04.995Z,101.28
2023-03-31T18:13:34.781Z,93.57
2023-03-31T18:16:02.702Z,205.88
2023-03-31T18:18:30.094Z,312.48
2023-03-31T18:20:57.568Z,495.60
2023-03-31T18:23:24.918Z,303.60
2023-03-31T18:25:52.782Z,193.15
2023-03-31T18:28:20.987Z,297.98
2023-03-31T18:30:48.203Z,395.35
2023-03-31T18:33:15.832Z,749.08
2023-03-31T18:35:42.930Z,643.95
2023-03-31T18:38:10.362Z,453.10
2023-03-31T18:40:37.760Z,362.60
2023-03-31T18:43:05.899Z,455.17
2023-03-31T18:45:33.093Z,217.32
2023-03-31T18:48:00.796Z,282.73
2023-03-31T18:50:27.891Z,1331.82
2023-03-31T18:52:55.301Z,1151.07
2023-03-31T18:55:22.451Z,603.83
2023-03-31T18:57:50.393Z,347.23
2023-03-31T19:00:19.002Z,363.15
2023-03-31T19:02:46.837Z,427.73
2023-03-31T19:05:13.977Z,240.38
2023-03-31T19:07:41.633Z,246.55
2023-03-31T19:10:09.338Z,264.45
2023-03-31T19:12:36.703Z,164.27
2023-03-31T19:15:03.988Z,194.15
2023-03-31T19:17:31.475Z,198.63
2023-03-31T19:19:58.633Z,776.45
2023-03-31T19:22:27.794Z,795.97
2023-03-31T19:24:54.865Z,484.50
2023-03-31T19:27:23.102Z,289.52
2023-03-31T19:29:50.562Z,359.38
2023-03-31T19:32:18.037Z,309.35
2023-03-31T19:34:46.423Z,263.85
2023-03-31T19:37:13.866Z,254.05
2023-03-31T19:39:40.992Z,264.45
2023-03-31T19:42:08.307Z,344.95
2023-03-31T19:44:35.797Z,108.05
2023-03-31T19:47:03.321Z,69.65
2023-03-31T19:49:30.371Z,55.92
2023-03-31T19:51:57.757Z,389.85
2023-03-31T19:54:24.780Z,221.10
2023-03-31T19:56:52.171Z,55.55
2023-03-31T19:59:19.272Z,52.13
2023-03-31T20:01:46.949Z,62.25
2023-03-31T20:04:17.302Z,62.65
2023-03-31T20:06:45.123Z,56.25
2023-03-31T20:09:12.849Z,35.67
2023-03-31T20:11:42.432Z,52.95
2023-03-31T20:14:10.718Z,49.20
2023-03-31T20:16:38.235Z,46.03
2023-03-31T20:19:06.243Z,51.67
2023-03-31T20:21:36.365Z,49.25
2023-03-31T20:24:03.686Z,45.45
2023-03-31T20:26:31.599Z,52.45
2023-03-31T20:29:01.955Z,34.45
2023-03-31T20:31:32.538Z,43.80
2023-03-31T20:33:59.797Z,43.42
2023-03-31T20:36:32.126Z,41.47
2023-03-31T20:39:00.285Z,43.47
2023-03-31T20:41:29.752Z,32.17
2023-03-31T20:43:57.035Z,38.92
2023-03-31T20:46:24.738Z,30.38
2023-03-31T20:48:55.138Z,28.58
2023-03-31T20:51:27.678Z,25.73
2023-03-31T20:53:55.305Z,27.40
2023-03-31T20:56:27.645Z,62.15
2023-03-31T20:58:57.788Z,37.83
2023-03-31T21:01:27.474Z,39.55
2023-03-31T21:03:55.102Z,32.33
2023-03-31T21:06:22.508Z,28.45
2023-03-31T21:08:53.804Z,47.10
2023-03-31T21:11:22.787Z,31.95
2023-03-31T21:13:50.501Z,52.95
2023-03-31T21:16:17.982Z,54.15
2023-03-31T21:18:45.003Z,60.05
2023-03-31T21:21:18.561Z,70.35
2023-03-31T21:23:46.760Z,98.97
2023-03-31T21:26:15.724Z,71.40
2023-03-31T21:28:43.531Z,53.05
2023-03-31T21:31:14.105Z,106.93
2023-03-31T21:33:42.840Z,114.47
2023-03-31T21:36:13.376Z,38.53
2023-03-31T21:38:40.644Z,36.67
2023-03-31T21:41:10.141Z,57.97
2023-03-31T21:43:37.364Z,60.95
2023-03-31T21:46:06.472Z,85.95
2023-03-31T21:48:34.610Z,61.25
2023-03-31T21:51:03.148Z,59.40
2023-03-31T21:53:31.171Z,47.20
2023-03-31T21:55:58.750Z,58.67
2023-03-31T21:58:28.652Z,47.95
2023-03-31T22:00:57.734Z,37.63
2023-03-31T22:03:28.677Z,49.05
2023-03-31T22:05:56.977Z,45.05
2023-03-31T22:08:24.928Z,58.08
2023-03-31T22:10:53.132Z,37.50
2023-03-31T22:13:21.445Z,31.42
2023-03-31T22:15:48.827Z,36.92
2023-03-31T22:18:17.129Z,21.70
2023-03-31T22:20:45.982Z,25.08
2023-03-31T22:23:13.388Z,25.13
2023-03-31T22:25:41.192Z,32.47
2023-03-31T22:28:09.170Z,27.70
2023-03-31T22:30:36.920Z,33.78
2023-03-31T22:33:04.236Z,34.55
2023-03-31T22:35:31.763Z,39.83
2023-03-31T22:37:58.949Z,27.33
2023-03-31T22:40:26.317Z,32.35
2023-03-31T22:42:54.903Z,29.55
2023-03-31T22:45:22.330Z,26.65
2023-03-31T22:47:49.377Z,21.10
2023-03-31T22:50:16.966Z,25.35
2023-03-31T22:52:45.497Z,26.95
2023-03-31T22:55:12.895Z,31.00
2023-03-31T22:57:40.187Z,113.28
2023-03-31T23:00:08.083Z,63.95
2023-03-31T23:02:35.089Z,57.83
2023-03-31T23:05:02.622Z,43.65
2023-03-31T23:07:30.423Z,51.83
2023-03-31T23:09:57.800Z,55.38
2023-03-31T23:12:25.993Z,36.55
2023-03-31T23:14:53.379Z,35.90
2023-03-31T23:17:20.795Z,42.10
2023-03-31T23:19:48.369Z,48.80
2023-03-31T23:22:15.710Z,38.88
2023-03-31T23:24:43.061Z,32.17
2023-03-31T23:27:10.764Z,39.97
2023-03-31T23:29:38.199Z,42.60
2023-03-31T23:32:05.661Z,46.72
2023-03-31T23:34:33.001Z,56.67
2023-03-31T23:37:00.018Z,89.97
2023-03-31T23:39:27.694Z,100.30
2023-03-31T23:41:54.644Z,66.40
2023-03-31T23:44:21.962Z,44.30
2023-03-31T23:46:48.935Z,47.05
2023-03-31T23:49:16.297Z,58.80
2023-03-31T23:51:43.245Z,53.80
2023-03-31T23:54:10.833Z,52.95
2023-03-31T23:56:37.958Z,55.05
2023-03-31T23:59:05.274Z,41.45
